Data for 05/07/2017

Time Sea-Level Adjusted Pressure Absolute Pressure Temperature Relative Humidity Dew Point   
(mb) (inHg) (mb) (inHg) (C) (F) (%) (C) (F)
00:05 1011 29.85 840 24.81 14.1 57.3 56 5.5 41.9
00:10 1011 29.85 840 24.81 13.8 56.9 58 5.7 42.3
00:15 1011 29.85 841 24.83 13.5 56.2 59 5.7 42.2
00:20 1011 29.85 841 24.83 13.4 56.1 58 5.4 41.8
00:25 1012 29.88 841 24.83 13.6 56.4 58 5.5 41.9
00:30 1012 29.88 841 24.83 13.6 56.4 58 5.5 41.9
00:35 1011 29.85 841 24.83 13.4 56.1 59 5.5 42
00:40 1011 29.85 840 24.81 13.3 55.9 59 5.4 41.8
00:45 1011 29.85 841 24.83 13.2 55.8 60 5.6 42.1
00:50 1011 29.85 841 24.83 13.1 55.6 60 5.5 41.9
00:55 1011 29.85 841 24.83 13.1 55.5 60 5.5 41.9
01:00 1011 29.85 841 24.83 12.9 55.2 60 5.5 41.9
01:05 1011 29.85 841 24.83 12.9 55.2 60 5.4 41.7
01:10 1011 29.85 841 24.83 12.9 55.3 60 5.4 41.8
01:15 1012 29.88 841 24.83 12.9 55.1 61 5.6 42
01:20 1012 29.88 841 24.83 12.7 54.9 62 5.6 42.1
01:25 1012 29.88 841 24.83 12.7 54.8 61 5.5 41.9
01:30 1012 29.88 841 24.83 12.7 54.9 61 5.5 42
01:35 1012 29.88 841 24.83 12.8 55.1 61 5.5 41.9
01:40 1012 29.88 841 24.83 12.9 55.2 61 5.5 41.9
01:45 1012 29.88 841 24.83 13 55.4 60 5.4 41.8
01:50 1012 29.88 841 24.83 13.2 55.8 59 5.3 41.6
01:55 1012 29.88 841 24.83 13.3 56 58 5.4 41.6
02:00 1012 29.88 841 24.83 13.4 56.1 57 5.2 41.4
02:05 1012 29.88 841 24.83 13.5 56.2 58 5.4 41.7
02:10 1012 29.88 841 24.83 13.4 56.1 58 5.4 41.6
02:15 1012 29.88 841 24.83 13.4 56.1 58 5.3 41.6
02:20 1012 29.88 841 24.83 13.4 56.1 58 5.4 41.7
02:25 1012 29.88 841 24.83 13.3 56 58 5.4 41.7
02:30 1012 29.88 841 24.83 13.3 55.9 59 5.5 41.9
02:35 1012 29.88 841 24.83 13.2 55.7 59 5.5 41.8
02:40 1012 29.88 841 24.83 13.1 55.5 59 5.4 41.8
02:45 1012 29.88 841 24.83 13.1 55.6 59 5.4 41.7
02:50 1012 29.88 841 24.83 13.2 55.7 59 5.5 41.8
02:55 1012 29.88 841 24.83 13.1 55.6 60 5.5 41.8
03:00 1012 29.88 841 24.83 12.9 55.3 60 5.4 41.7
03:05 1012 29.88 841 24.83 12.8 55.1 60 5.4 41.7
03:10 1012 29.88 841 24.83 12.8 55 61 5.4 41.8
03:15 1012 29.88 841 24.83 12.6 54.6 62 5.5 41.9
03:20 1012 29.88 841 24.83 12.4 54.3 62 5.4 41.7
03:25 1012 29.88 841 24.83 12.3 54.2 62 5.3 41.6
03:30 1012 29.88 841 24.83 12.2 53.9 61 5 41
03:35 1012 29.88 841 24.83 12.1 53.8 62 5 41.1
03:40 1012 29.88 841 24.83 11.9 53.5 63 5.2 41.4
03:45 1012 29.88 841 24.83 11.6 52.9 63 4.9 40.8
03:50 1012 29.88 841 24.83 11.6 52.8 63 4.7 40.5
03:55 1012 29.88 841 24.83 11.6 53 63 5 41
04:00 1012 29.88 841 24.83 11.5 52.6 64 5 41.1
04:05 1012 29.88 841 24.83 11.4 52.5 64 4.9 40.8
04:10 1012 29.88 841 24.83 11.2 52.2 66 5.1 41.2
04:15 1012 29.88 841 24.83 11.1 51.9 66 5 40.9
04:20 1012 29.88 841 24.83 10.9 51.6 66 4.9 40.8
04:25 1012 29.88 841 24.83 10.7 51.3 67 4.8 40.6
04:30 1012 29.88 841 24.83 10.5 50.9 68 4.9 40.8
04:35 1012 29.88 841 24.83 10.4 50.7 68 4.8 40.7
04:40 1012 29.88 841 24.83 10.4 50.8 67 4.7 40.4
04:45 1012 29.88 841 24.83 10.5 50.9 67 4.7 40.5
04:50 1012 29.88 841 24.83 10.5 50.8 68 4.9 40.9
04:55 1012 29.88 841 24.83 10.2 50.4 70 5 41.1
05:00 1012 29.88 841 24.83 10 50 71 5 41.1
05:05 1012 29.88 841 24.83 9.9 49.9 71 5 41
05:10 1012 29.88 841 24.83 9.9 49.8 72 5.1 41.2
05:15 1012 29.88 841 24.83 9.9 49.9 72 5.1 41.2
05:20 1012 29.88 841 24.83 9.9 49.7 72 5.1 41.2
05:25 1012 29.88 841 24.83 9.9 49.8 72 5.1 41.2
05:30 1012 29.88 841 24.83 9.9 49.9 72 5.1 41.2
05:35 1012 29.88 841 24.83 10.1 50.1 71 5 41
05:40 1012 29.88 841 24.83 10.3 50.5 67 4.5 40.1
05:45 1012 29.88 842 24.86 10.5 50.8 64 3.9 39
05:50 1012 29.88 842 24.86 10.6 51.2 64 4.1 39.3
05:55 1012 29.88 842 24.86 10.7 51.3 63 4.1 39.4
06:00 1012 29.88 842 24.86 10.5 50.8 66 4.3 39.8
06:05 1012 29.88 842 24.86 10.2 50.4 66 4.2 39.6
06:10 1013 29.91 842 24.86 10.1 50.2 66 4.1 39.4
06:15 1013 29.91 842 24.86 10 50.1 67 4.2 39.6
06:20 1013 29.91 842 24.86 10 50 66 4 39.3
06:25 1013 29.91 842 24.86 10.1 50.1 67 4.2 39.5
06:30 1013 29.91 842 24.86 10.1 50.1 67 4.2 39.5
06:35 1013 29.91 842 24.86 10.1 50.1 68 4.4 39.9
06:40 1013 29.91 842 24.86 10 49.9 68 4.4 40
06:45 1013 29.91 842 24.86 10 50 68 4.4 40
06:50 1013 29.91 842 24.86 10.1 50.2 69 4.6 40.3
06:55 1013 29.91 842 24.86 10.2 50.4 69 4.9 40.9
07:00 1013 29.91 842 24.86 10.2 50.4 71 5.1 41.2
07:05 1013 29.91 842 24.86 10.2 50.3 72 5.3 41.6
07:10 1013 29.91 842 24.86 10.1 50.1 73 5.6 42
07:15 1013 29.91 842 24.86 10.1 50.1 75 5.9 42.6
07:20 1013 29.91 842 24.86 10.1 50.2 75 5.8 42.5
07:25 1013 29.91 842 24.86 10.2 50.4 74 5.8 42.5
07:30 1013 29.91 842 24.86 10.3 50.6 74 5.9 42.6
07:35 1013 29.91 842 24.86 10.5 50.8 74 6 42.7
07:40 1013 29.91 842 24.86 10.7 51.2 73 6.1 42.9
07:45 1013 29.91 842 24.86 10.8 51.4 73 6.1 43
07:50 1013 29.91 842 24.86 10.9 51.6 72 6.1 43
07:55 1013 29.91 842 24.86 11 51.8 72 6.3 43.3
08:00 1013 29.91 842 24.86 11.1 52 72 6.2 43.2
08:05 1013 29.91 842 24.86 11.2 52.1 71 6.2 43.2
08:10 1013 29.91 842 24.86 11.3 52.3 72 6.4 43.5
08:15 1013 29.91 842 24.86 11.4 52.6 70 6.2 43.2
08:20 1013 29.91 842 24.86 11.7 53 70 6.5 43.6
08:25 1013 29.91 842 24.86 11.5 52.8 70 6.3 43.3
08:30 1013 29.91 842 24.86 11.7 53.1 69 6.3 43.4
08:35 1013 29.91 842 24.86 12 53.7 68 6.4 43.5
08:40 1013 29.91 842 24.86 12.3 54.1 67 6.3 43.3
08:45 1013 29.91 842 24.86 12.3 54.1 68 6.6 43.8
08:50 1013 29.91 842 24.86 12.5 54.6 65 6.3 43.3
08:55 1013 29.91 842 24.86 13.4 56.2 62 6.3 43.3
09:00 1013 29.91 842 24.86 13.5 56.3 63 6.6 43.9
09:05 1013 29.91 842 24.86 13.8 56.8 61 6.5 43.8
09:10 1013 29.91 842 24.86 13.8 56.9 62 6.7 44
09:15 1013 29.91 842 24.86 13.7 56.7 62 6.7 44
09:20 1013 29.91 842 24.86 13.6 56.5 62 6.5 43.6
09:25 1013 29.91 842 24.86 14.1 57.3 60 6.4 43.6
09:30 1013 29.91 842 24.86 14 57.2 61 6.7 44
09:35 1013 29.91 842 24.86 14 57.2 60 6.4 43.5
09:40 1013 29.91 842 24.86 14.2 57.5 59 6.2 43.2
09:45 1013 29.91 842 24.86 14.4 57.8 58 6.4 43.5
09:50 1013 29.91 842 24.86 14.5 58 58 6.5 43.7
09:55 1013 29.91 842 24.86 14.8 58.6 57 6.5 43.7
10:00 1013 29.91 842 24.86 14.8 58.7 57 6.5 43.7
10:05 1013 29.91 842 24.86 14.9 58.8 58 6.7 44.1
10:10 1013 29.91 842 24.86 14.4 57.9 59 6.5 43.7
10:15 1013 29.91 842 24.86 14.7 58.5 58 6.6 43.8
10:20 1013 29.91 842 24.86 15 59.1 57 6.8 44.2
10:25 1013 29.91 842 24.86 14.6 58.3 59 6.7 44
10:30 1013 29.91 842 24.86 14.8 58.7 58 6.6 43.9
10:35 1013 29.91 842 24.86 15.2 59.3 55 6.3 43.4
10:40 1013 29.91 842 24.86 15.4 59.7 56 6.8 44.2
10:45 1013 29.91 842 24.86 15.5 59.8 55 6.7 44
10:50 1013 29.91 842 24.86 15.4 59.7 56 6.8 44.2
10:55 1013 29.91 842 24.86 15.4 59.6 55 6.5 43.7
11:00 1013 29.91 842 24.86 15.8 60.5 53 6.5 43.7
11:05 1013 29.91 842 24.86 16.4 61.5 53 6.9 44.4
11:10 1013 29.91 842 24.86 15.8 60.5 55 6.9 44.4
11:15 1013 29.91 842 24.86 15.9 60.7 53 6.5 43.7
11:20 1013 29.91 842 24.86 15.9 60.5 54 6.7 44.1
11:25 1013 29.91 842 24.86 17 62.6 51 6.8 44.2
11:30 1013 29.91 842 24.86 16.8 62.2 54 7.6 45.7
11:35 1013 29.91 842 24.86 16.5 61.8 53 7 44.5
11:40 1013 29.91 842 24.86 16.5 61.6 53 6.9 44.4
11:45 1013 29.91 842 24.86 16.9 62.4 54 7.6 45.6
11:50 1013 29.91 842 24.86 17.1 62.8 52 7.2 45
11:55 1013 29.91 842 24.86 17.2 62.9 51 7.1 44.8
12:00 1012 29.88 842 24.86 17.4 63.3 51 7.3 45.1
12:05 1012 29.88 842 24.86 17.6 63.7 51 7.3 45.2
12:10 1012 29.88 842 24.86 17.8 64 51 7.5 45.5
12:15 1012 29.88 842 24.86 17.7 63.8 50 7.1 44.8
12:20 1012 29.88 842 24.86 18 64.4 49 7.2 44.9
12:25 1013 29.91 842 24.86 18.3 65 49 7.6 45.6
12:30 1013 29.91 842 24.86 17.7 63.9 51 7.5 45.5
12:35 1013 29.91 842 24.86 17 62.5 54 7.7 45.8
12:40 1013 29.91 842 24.86 16.4 61.5 55 7.4 45.3
12:45 1013 29.91 842 24.86 16.4 61.4 56 7.5 45.6
12:50 1013 29.91 842 24.86 16.1 60.9 56 7.4 45.4
12:55 1013 29.91 842 24.86 15.8 60.4 58 7.5 45.5
13:00 1013 29.91 842 24.86 15.2 59.4 66 9 48.2
13:05 1013 29.91 842 24.86 14.5 58 72 9.5 49.1
13:10 1013 29.91 842 24.86 13.7 56.7 76 9.6 49.3
13:15 1013 29.91 842 24.86 13.4 56.1 79 9.9 49.8
13:20 1013 29.91 842 24.86 13 55.5 79 9.4 48.9
13:25 1013 29.91 842 24.86 12.5 54.5 83 9.8 49.6
13:30 1013 29.91 842 24.86 12.4 54.2 84 9.7 49.4
13:35 1013 29.91 842 24.86 12.2 54 84 9.5 49.2
13:40 1013 29.91 842 24.86 12.2 53.9 84 9.6 49.3
13:45 1013 29.91 842 24.86 12.4 54.4 82 9.5 49.2
13:50 1013 29.91 842 24.86 12.8 55 80 9.4 48.9
13:55 1013 29.91 842 24.86 12.9 55.1 83 10 50.1
14:00 1013 29.91 842 24.86 13 55.4 80 9.7 49.5
14:05 1013 29.91 842 24.86 12.8 55 78 9.1 48.4
14:10 1013 29.91 842 24.86 12.6 54.6 79 9.1 48.4
14:15 1013 29.91 842 24.86 12.5 54.4 81 9.3 48.8
14:20 1013 29.91 842 24.86 12.5 54.4 80 9.2 48.6
14:25 1012 29.88 842 24.86 12.5 54.5 78 8.8 47.9
14:30 1012 29.88 841 24.83 12.5 54.5 80 9.3 48.7
14:35 1012 29.88 841 24.83 12.9 55.1 73 8.1 46.7
14:40 1012 29.88 841 24.83 13.4 56.1 73 8.7 47.7
14:45 1012 29.88 841 24.83 14.1 57.3 74 9.6 49.4
14:50 1012 29.88 841 24.83 14.5 58.1 65 8 46.3
14:55 1012 29.88 841 24.83 14.5 58.1 64 7.8 46.1
15:00 1012 29.88 841 24.83 15.3 59.6 66 9.1 48.4
15:05 1013 29.91 842 24.86 16.6 61.8 55 7.7 45.8
15:10 1013 29.91 842 24.86 17 62.5 61 9.4 48.9
15:15 1013 29.91 842 24.86 16.2 61.1 63 9.3 48.7
15:20 1013 29.91 842 24.86 14.4 57.8 57 6.1 42.9
15:25 1013 29.91 842 24.86 13 55.3 61 5.7 42.3
15:30 1013 29.91 842 24.86 12.2 54 64 5.7 42.3
15:35 1013 29.91 842 24.86 12 53.6 67 6 42.8
15:40 1013 29.91 842 24.86 11.9 53.5 69 6.4 43.6
15:45 1013 29.91 843 24.89 11.7 53 76 7.5 45.5
15:50 1013 29.91 843 24.89 11.7 53.1 73 7.1 44.7
15:55 1013 29.91 843 24.89 11.9 53.4 69 6.5 43.7
16:00 1013 29.91 842 24.86 12.3 54.2 67 6.5 43.7
16:05 1013 29.91 842 24.86 12.1 53.8 68 6.5 43.7
16:10 1013 29.91 842 24.86 12.1 53.7 67 6.2 43.1
16:15 1013 29.91 842 24.86 12.4 54.2 65 6.1 42.9
16:20 1013 29.91 842 24.86 13.6 56.4 61 6.3 43.3
16:25 1013 29.91 842 24.86 13.9 56.9 60 6.3 43.4
16:30 1013 29.91 842 24.86 13.6 56.5 60 6 42.8
16:35 1013 29.91 843 24.89 14 57.3 59 6.2 43.2
16:40 1013 29.91 843 24.89 14.3 57.7 58 6.2 43.2
16:45 1014 29.94 843 24.89 14.6 58.2 57 6.2 43.2
16:50 1014 29.94 843 24.89 14.6 58.3 57 6.2 43.1
16:55 1014 29.94 843 24.89 14.8 58.6 58 6.6 43.9
17:00 1014 29.94 843 24.89 14.7 58.4 57 6.3 43.3
17:05 1014 29.94 843 24.89 14.3 57.7 58 6.2 43.2
17:10 1014 29.94 843 24.89 13.8 56.9 60 6.4 43.5
17:15 1014 29.94 843 24.89 13.7 56.7 61 6.4 43.6
17:20 1014 29.94 843 24.89 13.6 56.4 64 6.9 44.4
17:25 1014 29.94 843 24.89 13.5 56.4 62 6.6 43.8
17:30 1014 29.94 843 24.89 13.6 56.4 64 6.8 44.3
17:35 1014 29.94 843 24.89 13.5 56.3 63 6.8 44.2
17:40 1014 29.94 843 24.89 13.4 56.1 66 7.1 44.8
17:45 1014 29.94 843 24.89 13.1 55.5 66 6.8 44.3
17:50 1014 29.94 844 24.92 12.6 54.6 72 7.7 45.8
17:55 1014 29.94 844 24.92 12 53.5 76 7.8 46.1
18:00 1014 29.94 844 24.92 11.7 53 78 8.1 46.5
18:05 1015 29.97 844 24.92 11.4 52.4 79 7.9 46.3
18:10 1015 29.97 844 24.92 11 51.9 82 8 46.5
18:15 1015 29.97 844 24.92 10.8 51.5 81 7.7 45.8
18:20 1015 29.97 844 24.92 10.7 51.2 81 7.6 45.6
18:25 1015 29.97 844 24.92 10.7 51.3 82 7.7 45.9
18:30 1015 29.97 844 24.92 10.8 51.4 80 7.5 45.6
18:35 1015 29.97 844 24.92 10.8 51.4 80 7.6 45.7
18:40 1015 29.97 844 24.92 10.7 51.3 80 7.4 45.4
18:45 1015 29.97 844 24.92 10.6 51 81 7.4 45.3
18:50 1015 29.97 844 24.92 10.4 50.7 79 6.9 44.5
18:55 1015 29.97 844 24.92 10.3 50.6 79 6.9 44.5
19:00 1015 29.97 844 24.92 10.3 50.5 80 7 44.6
19:05 1015 29.97 844 24.92 10.2 50.3 81 7 44.6
19:10 1015 29.97 844 24.92 9.9 49.8 80 6.6 43.9
19:15 1015 29.97 844 24.92 9.6 49.3 79 6.2 43.1
19:20 1015 29.97 845 24.95 9.5 49.2 80 6.2 43.2
19:25 1015 29.97 845 24.95 9.4 48.9 80 6.2 43.1
19:30 1016 30 845 24.95 9.2 48.5 81 6.1 43
19:35 1016 30 845 24.95 8.9 48 82 5.9 42.7
19:40 1016 30 845 24.95 8.8 47.9 82 5.9 42.6
19:45 1016 30 845 24.95 8.9 48.1 83 6.2 43.1
19:50 1016 30 845 24.95 9.1 48.3 83 6.4 43.5
19:55 1016 30 845 24.95 9.1 48.3 81 6 42.8
20:00 1016 30 845 24.95 8.9 48.1 81 5.8 42.4
20:05 1016 30 846 24.98 8.8 47.8 83 6.1 42.9
20:10 1017 30.03 846 24.98 8.7 47.6 83 5.9 42.6
20:15 1017 30.03 846 24.98 8.4 47.1 84 5.8 42.5
20:20 1017 30.03 846 24.98 8.2 46.7 85 5.8 42.4
20:25 1017 30.03 846 24.98 8.2 46.7 86 5.9 42.6
20:30 1017 30.03 846 24.98 8.2 46.7 86 6 42.8
20:35 1017 30.03 847 25.01 8 46.5 84 5.5 41.8
20:40 1017 30.03 847 25.01 7.8 46 84 5.3 41.5
20:45 1017 30.03 846 24.98 7.4 45.4 82 4.5 40.2
20:50 1017 30.03 847 25.01 7.1 44.8 83 4.4 40
20:55 1017 30.03 847 25.01 6.9 44.3 83 4.2 39.5
21:00 1018 30.06 847 25.01 6.8 44.2 83 4 39.3
21:05 1018 30.06 847 25.01 6.6 44 84 4.2 39.5
21:10 1018 30.06 847 25.01 6.6 43.8 84 4.1 39.4
21:15 1018 30.06 847 25.01 6.5 43.8 84 4 39.1
21:20 1018 30.06 847 25.01 6.5 43.7 84 4 39.3
21:25 1018 30.06 847 25.01 6.5 43.8 83 3.8 38.9
21:30 1018 30.06 847 25.01 6.6 43.8 83 3.9 39
21:35 1018 30.06 848 25.04 6.6 43.8 82 3.7 38.7
21:40 1018 30.06 848 25.04 6.6 43.9 81 3.6 38.5
21:45 1019 30.09 848 25.04 6.6 43.9 81 3.5 38.3
21:50 1019 30.09 848 25.04 6.6 43.9 81 3.7 38.6
21:55 1019 30.09 848 25.04 6.6 44 81 3.7 38.6
22:00 1019 30.09 848 25.04 6.6 43.9 81 3.7 38.6
22:05 1019 30.09 848 25.04 6.6 43.9 81 3.6 38.4
22:10 1019 30.09 848 25.04 6.6 43.9 81 3.7 38.6
22:15 1019 30.09 848 25.04 6.6 43.9 80 3.4 38.2
22:20 1019 30.09 848 25.04 6.6 43.9 83 3.9 39
22:25 1019 30.09 848 25.04 6.4 43.6 85 4 39.2
22:30 1019 30.09 848 25.04 6.2 43.1 86 3.9 39.1
22:35 1019 30.09 848 25.04 6 42.8 87 3.9 39.1
22:40 1019 30.09 848 25.04 5.8 42.4 88 3.9 39
22:45 1019 30.09 849 25.07 5.7 42.3 89 4 39.1
22:50 1019 30.09 849 25.07 5.7 42.3 88 3.9 39.1
22:55 1019 30.09 849 25.07 5.6 42 89 3.9 39
23:00 1020 30.12 849 25.07 5.5 41.9 89 3.8 38.8
23:05 1020 30.12 849 25.07 5.5 41.9 89 3.8 38.8
23:10 1020 30.12 849 25.07 5.5 42 88 3.7 38.7
23:15 1020 30.12 849 25.07 5.6 42 88 3.7 38.7
23:20 1020 30.12 849 25.07 5.7 42.3 88 3.9 39
23:25 1020 30.12 849 25.07 5.8 42.4 86 3.7 38.6
23:30 1020 30.12 849 25.07 5.7 42.3 86 3.6 38.5
23:35 1020 30.12 849 25.07 5.7 42.2 85 3.3 38
23:40 1020 30.12 849 25.07 5.6 42 85 3.2 37.8
23:45 1020 30.12 849 25.07 5.5 41.9 86 3.3 37.9
23:50 1020 30.12 849 25.07 5.5 41.9 86 3.4 38.1
23:55 1020 30.12 849 25.07 5.6 42 87 3.5 38.3
24:00 1020 30.12 850 25.1 5.6 42 85 3.3 37.9